sensor_id;sensor_type;location;lat;lon;timestamp;P1;durP1;ratioP1;P2;durP2;ratioP2
20988;SDS011;10653;47.052;15.410;2023-04-01T00:02:20;3.87;;;3.53;;
20988;SDS011;10653;47.052;15.410;2023-04-01T00:04:46;5.77;;;4.73;;
20988;SDS011;10653;47.052;15.410;2023-04-01T00:07:12;5.50;;;3.67;;
20988;SDS011;10653;47.052;15.410;2023-04-01T00:09:38;4.13;;;3.50;;
20988;SDS011;10653;47.052;15.410;2023-04-01T00:12:04;5.30;;;4.17;;
20988;SDS011;10653;47.052;15.410;2023-04-01T00:14:30;4.07;;;3.70;;
20988;SDS011;10653;47.052;15.410;2023-04-01T00:16:56;4.70;;;3.80;;
20988;SDS011;10653;47.052;15.410;2023-04-01T00:19:22;2.97;;;2.77;;
20988;SDS011;10653;47.052;15.410;2023-04-01T00:21:48;3.70;;;3.27;;
20988;SDS011;10653;47.052;15.410;2023-04-01T00:24:14;3.43;;;2.93;;
20988;SDS011;10653;47.052;15.410;2023-04-01T00:26:40;5.17;;;2.57;;
20988;SDS011;10653;47.052;15.410;2023-04-01T00:29:07;2.97;;;2.77;;
20988;SDS011;10653;47.052;15.410;2023-04-01T00:31:33;3.10;;;2.53;;
20988;SDS011;10653;47.052;15.410;2023-04-01T00:33:59;3.17;;;2.70;;
20988;SDS011;10653;47.052;15.410;2023-04-01T00:36:25;3.50;;;3.20;;
20988;SDS011;10653;47.052;15.410;2023-04-01T00:38:51;6.00;;;4.43;;
20988;SDS011;10653;47.052;15.410;2023-04-01T00:41:20;5.20;;;4.70;;
20988;SDS011;10653;47.052;15.410;2023-04-01T00:43:48;4.33;;;3.93;;
20988;SDS011;10653;47.052;15.410;2023-04-01T00:46:14;3.97;;;3.47;;
20988;SDS011;10653;47.052;15.410;2023-04-01T00:49:01;5.40;;;4.23;;
20988;SDS011;10653;47.052;15.410;2023-04-01T00:51:27;5.77;;;4.83;;
20988;SDS011;10653;47.052;15.410;2023-04-01T00:53:55;4.23;;;3.83;;
20988;SDS011;10653;47.052;15.410;2023-04-01T00:56:25;4.07;;;3.67;;
20988;SDS011;10653;47.052;15.410;2023-04-01T00:58:57;5.90;;;3.80;;
20988;SDS011;10653;47.052;15.410;2023-04-01T01:01:25;4.67;;;3.70;;
20988;SDS011;10653;47.052;15.410;2023-04-01T01:03:51;3.83;;;3.43;;
20988;SDS011;10653;47.052;15.410;2023-04-01T01:11:35;3.50;;;3.00;;
20988;SDS011;10653;47.052;15.410;2023-04-01T01:14:25;4.10;;;2.90;;
20988;SDS011;10653;47.052;15.410;2023-04-01T01:16:51;3.63;;;3.20;;
20988;SDS011;10653;47.052;15.410;2023-04-01T01:27:37;4.07;;;3.77;;
20988;SDS011;10653;47.052;15.410;2023-04-01T01:30:17;4.70;;;4.13;;
20988;SDS011;10653;47.052;15.410;2023-04-01T01:33:01;4.30;;;3.90;;
20988;SDS011;10653;47.052;15.410;2023-04-01T01:35:38;4.40;;;4.00;;
20988;SDS011;10653;47.052;15.410;2023-04-01T01:38:08;5.17;;;4.60;;
20988;SDS011;10653;47.052;15.410;2023-04-01T01:40:35;5.00;;;4.60;;
20988;SDS011;10653;47.052;15.410;2023-04-01T01:43:03;4.70;;;4.20;;
20988;SDS011;10653;47.052;15.410;2023-04-01T01:45:30;6.50;;;4.67;;
20988;SDS011;10653;47.052;15.410;2023-04-01T01:47:57;5.67;;;4.53;;
20988;SDS011;10653;47.052;15.410;2023-04-01T01:50:24;5.17;;;4.70;;
20988;SDS011;10653;47.052;15.410;2023-04-01T01:52:59;5.30;;;4.80;;
20988;SDS011;10653;47.052;15.410;2023-04-01T01:57:55;5.63;;;4.83;;
20988;SDS011;10653;47.052;15.410;2023-04-01T02:00:21;4.83;;;3.80;;
20988;SDS011;10653;47.052;15.410;2023-04-01T02:02:47;4.20;;;3.80;;
20988;SDS011;10653;47.052;15.410;2023-04-01T02:05:18;4.80;;;4.30;;
20988;SDS011;10653;47.052;15.410;2023-04-01T02:07:46;4.83;;;4.40;;
20988;SDS011;10653;47.052;15.410;2023-04-01T02:10:14;4.30;;;3.57;;
20988;SDS011;10653;47.052;15.410;2023-04-01T02:12:40;3.30;;;3.07;;
20988;SDS011;10653;47.052;15.410;2023-04-01T02:15:09;4.63;;;4.23;;
20988;SDS011;10653;47.052;15.410;2023-04-01T02:17:37;4.27;;;3.80;;
20988;SDS011;10653;47.052;15.410;2023-04-01T02:20:05;4.03;;;3.73;;
20988;SDS011;10653;47.052;15.410;2023-04-01T02:22:35;5.83;;;5.20;;
20988;SDS011;10653;47.052;15.410;2023-04-01T02:25:07;4.60;;;3.87;;
20988;SDS011;10653;47.052;15.410;2023-04-01T02:27:34;3.60;;;3.30;;
20988;SDS011;10653;47.052;15.410;2023-04-01T02:30:00;4.40;;;4.00;;
20988;SDS011;10653;47.052;15.410;2023-04-01T02:32:26;5.67;;;4.10;;
20988;SDS011;10653;47.052;15.410;2023-04-01T02:34:53;4.60;;;4.07;;
20988;SDS011;10653;47.052;15.410;2023-04-01T02:37:20;6.57;;;4.67;;
20988;SDS011;10653;47.052;15.410;2023-04-01T02:39:46;4.13;;;3.73;;
20988;SDS011;10653;47.052;15.410;2023-04-01T02:42:13;4.30;;;3.90;;
20988;SDS011;10653;47.052;15.410;2023-04-01T02:44:40;4.63;;;3.50;;
20988;SDS011;10653;47.052;15.410;2023-04-01T02:47:06;4.07;;;3.60;;
20988;SDS011;10653;47.052;15.410;2023-04-01T02:49:32;4.70;;;4.23;;
20988;SDS011;10653;47.052;15.410;2023-04-01T02:51:58;4.40;;;3.90;;
20988;SDS011;10653;47.052;15.410;2023-04-01T02:54:24;4.90;;;4.27;;
20988;SDS011;10653;47.052;15.410;2023-04-01T02:56:50;5.03;;;4.60;;
20988;SDS011;10653;47.052;15.410;2023-04-01T02:59:16;6.50;;;4.43;;
20988;SDS011;10653;47.052;15.410;2023-04-01T03:01:42;5.30;;;4.80;;
20988;SDS011;10653;47.052;15.410;2023-04-01T03:04:08;6.50;;;5.63;;
20988;SDS011;10653;47.052;15.410;2023-04-01T03:06:34;5.63;;;4.63;;
20988;SDS011;10653;47.052;15.410;2023-04-01T03:09:00;6.83;;;5.03;;
20988;SDS011;10653;47.052;15.410;2023-04-01T03:11:26;4.83;;;4.37;;
20988;SDS011;10653;47.052;15.410;2023-04-01T03:13:52;6.87;;;5.53;;
20988;SDS011;10653;47.052;15.410;2023-04-01T03:16:18;5.63;;;5.03;;
20988;SDS011;10653;47.052;15.410;2023-04-01T03:18:44;5.73;;;5.20;;
20988;SDS011;10653;47.052;15.410;2023-04-01T03:21:15;6.43;;;5.17;;
20988;SDS011;10653;47.052;15.410;2023-04-01T03:23:41;6.53;;;5.10;;
20988;SDS011;10653;47.052;15.410;2023-04-01T03:26:07;5.17;;;4.67;;
20988;SDS011;10653;47.052;15.410;2023-04-01T03:28:33;4.83;;;4.40;;
20988;SDS011;10653;47.052;15.410;2023-04-01T03:30:59;5.87;;;4.90;;
20988;SDS011;10653;47.052;15.410;2023-04-01T03:33:25;5.43;;;4.93;;
20988;SDS011;10653;47.052;15.410;2023-04-01T03:35:51;4.90;;;4.47;;
20988;SDS011;10653;47.052;15.410;2023-04-01T03:38:17;5.60;;;5.10;;
20988;SDS011;10653;47.052;15.410;2023-04-01T03:40:43;6.30;;;5.50;;
20988;SDS011;10653;47.052;15.410;2023-04-01T03:43:10;7.23;;;4.77;;
20988;SDS011;10653;47.052;15.410;2023-04-01T03:45:36;7.47;;;4.60;;
20988;SDS011;10653;47.052;15.410;2023-04-01T03:48:08;7.27;;;6.00;;
20988;SDS011;10653;47.052;15.410;2023-04-01T03:50:34;8.53;;;5.17;;
20988;SDS011;10653;47.052;15.410;2023-04-01T03:53:00;6.93;;;6.23;;
20988;SDS011;10653;47.052;15.410;2023-04-01T03:55:26;5.47;;;4.93;;
20988;SDS011;10653;47.052;15.410;2023-04-01T03:57:52;7.23;;;5.83;;
20988;SDS011;10653;47.052;15.410;2023-04-01T04:00:18;7.50;;;5.70;;
20988;SDS011;10653;47.052;15.410;2023-04-01T04:02:44;7.00;;;5.80;;
20988;SDS011;10653;47.052;15.410;2023-04-01T04:05:11;8.93;;;6.10;;
20988;SDS011;10653;47.052;15.410;2023-04-01T04:07:38;5.83;;;5.30;;
20988;SDS011;10653;47.052;15.410;2023-04-01T04:10:04;5.93;;;5.27;;
20988;SDS011;10653;47.052;15.410;2023-04-01T04:12:30;8.40;;;6.30;;
20988;SDS011;10653;47.052;15.410;2023-04-01T04:14:56;5.83;;;5.20;;
20988;SDS011;10653;47.052;15.410;2023-04-01T04:17:22;5.60;;;5.10;;
20988;SDS011;10653;47.052;15.410;2023-04-01T04:19:49;5.53;;;4.87;;
20988;SDS011;10653;47.052;15.410;2023-04-01T04:22:15;5.30;;;4.60;;
20988;SDS011;10653;47.052;15.410;2023-04-01T04:24:41;5.80;;;4.80;;
20988;SDS011;10653;47.052;15.410;2023-04-01T04:27:07;5.67;;;5.20;;
20988;SDS011;10653;47.052;15.410;2023-04-01T04:29:33;4.90;;;4.50;;
20988;SDS011;10653;47.052;15.410;2023-04-01T04:31:59;5.37;;;4.80;;
20988;SDS011;10653;47.052;15.410;2023-04-01T04:34:25;6.30;;;5.20;;
20988;SDS011;10653;47.052;15.410;2023-04-01T04:36:51;5.93;;;4.67;;
20988;SDS011;10653;47.052;15.410;2023-04-01T04:39:17;5.03;;;4.53;;
20988;SDS011;10653;47.052;15.410;2023-04-01T04:41:43;5.83;;;5.23;;
20988;SDS011;10653;47.052;15.410;2023-04-01T04:44:09;4.63;;;4.23;;
20988;SDS011;10653;47.052;15.410;2023-04-01T04:46:35;5.03;;;4.40;;
20988;SDS011;10653;47.052;15.410;2023-04-01T04:49:04;5.03;;;4.63;;
20988;SDS011;10653;47.052;15.410;2023-04-01T04:51:30;5.80;;;5.20;;
20988;SDS011;10653;47.052;15.410;2023-04-01T04:53:59;6.17;;;4.90;;
20988;SDS011;10653;47.052;15.410;2023-04-01T04:56:25;5.40;;;4.90;;
20988;SDS011;10653;47.052;15.410;2023-04-01T04:58:51;5.10;;;4.50;;
20988;SDS011;10653;47.052;15.410;2023-04-01T05:01:17;7.60;;;5.50;;
20988;SDS011;10653;47.052;15.410;2023-04-01T05:03:44;5.03;;;4.53;;
20988;SDS011;10653;47.052;15.410;2023-04-01T05:06:11;7.33;;;5.40;;
20988;SDS011;10653;47.052;15.410;2023-04-01T05:08:37;5.97;;;5.10;;
20988;SDS011;10653;47.052;15.410;2023-04-01T05:11:06;5.43;;;4.90;;
20988;SDS011;10653;47.052;15.410;2023-04-01T05:13:35;8.57;;;5.13;;
20988;SDS011;10653;47.052;15.410;2023-04-01T05:16:01;9.13;;;5.40;;
20988;SDS011;10653;47.052;15.410;2023-04-01T05:18:27;6.50;;;4.90;;
20988;SDS011;10653;47.052;15.410;2023-04-01T05:20:53;7.20;;;5.17;;
20988;SDS011;10653;47.052;15.410;2023-04-01T05:23:20;5.17;;;4.63;;
20988;SDS011;10653;47.052;15.410;2023-04-01T05:25:47;5.93;;;4.43;;
20988;SDS011;10653;47.052;15.410;2023-04-01T05:28:13;5.17;;;4.63;;
20988;SDS011;10653;47.052;15.410;2023-04-01T05:30:40;8.20;;;5.00;;
20988;SDS011;10653;47.052;15.410;2023-04-01T05:33:06;5.43;;;3.97;;
20988;SDS011;10653;47.052;15.410;2023-04-01T05:35:32;5.50;;;4.57;;
20988;SDS011;10653;47.052;15.410;2023-04-01T05:37:59;6.60;;;4.63;;
20988;SDS011;10653;47.052;15.410;2023-04-01T05:40:25;10.90;;;4.70;;
20988;SDS011;10653;47.052;15.410;2023-04-01T05:42:51;4.17;;;3.77;;
20988;SDS011;10653;47.052;15.410;2023-04-01T05:45:17;5.53;;;3.90;;
20988;SDS011;10653;47.052;15.410;2023-04-01T05:47:43;3.67;;;3.30;;
20988;SDS011;10653;47.052;15.410;2023-04-01T05:50:09;5.47;;;2.97;;
20988;SDS011;10653;47.052;15.410;2023-04-01T05:52:36;4.80;;;3.17;;
20988;SDS011;10653;47.052;15.410;2023-04-01T05:55:02;3.93;;;2.83;;
20988;SDS011;10653;47.052;15.410;2023-04-01T05:57:28;6.30;;;4.10;;
20988;SDS011;10653;47.052;15.410;2023-04-01T05:59:54;5.20;;;3.77;;
20988;SDS011;10653;47.052;15.410;2023-04-01T06:02:20;4.97;;;3.53;;
20988;SDS011;10653;47.052;15.410;2023-04-01T06:04:46;3.63;;;3.27;;
20988;SDS011;10653;47.052;15.410;2023-04-01T06:07:13;6.90;;;3.93;;
20988;SDS011;10653;47.052;15.410;2023-04-01T06:09:40;5.20;;;4.10;;
20988;SDS011;10653;47.052;15.410;2023-04-01T06:12:14;5.10;;;3.80;;
20988;SDS011;10653;47.052;15.410;2023-04-01T06:14:56;4.53;;;4.13;;
20988;SDS011;10653;47.052;15.410;2023-04-01T06:30:29;4.73;;;3.60;;
20988;SDS011;10653;47.052;15.410;2023-04-01T06:33:13;4.47;;;4.07;;
20988;SDS011;10653;47.052;15.410;2023-04-01T06:38:17;4.23;;;3.83;;
20988;SDS011;10653;47.052;15.410;2023-04-01T06:40:51;5.07;;;3.80;;
20988;SDS011;10653;47.052;15.410;2023-04-01T06:43:30;5.07;;;3.97;;
20988;SDS011;10653;47.052;15.410;2023-04-01T06:54:18;6.00;;;4.50;;
20988;SDS011;10653;47.052;15.410;2023-04-01T06:56:46;7.70;;;6.33;;
20988;SDS011;10653;47.052;15.410;2023-04-01T07:01:48;5.10;;;4.53;;
20988;SDS011;10653;47.052;15.410;2023-04-01T07:04:17;5.90;;;4.50;;
20988;SDS011;10653;47.052;15.410;2023-04-01T07:06:50;4.97;;;4.47;;
20988;SDS011;10653;47.052;15.410;2023-04-01T07:09:19;4.53;;;4.13;;
20988;SDS011;10653;47.052;15.410;2023-04-01T07:11:47;8.13;;;4.37;;
20988;SDS011;10653;47.052;15.410;2023-04-01T07:14:20;4.73;;;4.20;;
20988;SDS011;10653;47.052;15.410;2023-04-01T07:16:51;4.20;;;3.80;;
20988;SDS011;10653;47.052;15.410;2023-04-01T07:22:05;4.60;;;4.10;;
20988;SDS011;10653;47.052;15.410;2023-04-01T07:24:42;6.73;;;4.27;;
20988;SDS011;10653;47.052;15.410;2023-04-01T07:27:11;4.80;;;4.20;;
20988;SDS011;10653;47.052;15.410;2023-04-01T07:29:37;5.00;;;4.43;;
20988;SDS011;10653;47.052;15.410;2023-04-01T07:32:17;4.73;;;4.20;;
20988;SDS011;10653;47.052;15.410;2023-04-01T07:34:52;4.20;;;3.80;;
20988;SDS011;10653;47.052;15.410;2023-04-01T07:40:00;5.17;;;4.67;;
20988;SDS011;10653;47.052;15.410;2023-04-01T07:45:14;6.67;;;4.80;;
20988;SDS011;10653;47.052;15.410;2023-04-01T07:56:01;6.83;;;6.23;;
20988;SDS011;10653;47.052;15.410;2023-04-01T08:01:02;5.93;;;5.33;;
20988;SDS011;10653;47.052;15.410;2023-04-01T08:16:23;7.90;;;4.60;;
20988;SDS011;10653;47.052;15.410;2023-04-01T08:21:41;5.40;;;4.63;;
20988;SDS011;10653;47.052;15.410;2023-04-01T08:24:33;5.40;;;4.50;;
20988;SDS011;10653;47.052;15.410;2023-04-01T08:26:55;3.93;;;3.63;;
20988;SDS011;10653;47.052;15.410;2023-04-01T08:29:26;4.17;;;3.77;;
20988;SDS011;10653;47.052;15.410;2023-04-01T08:32:01;4.87;;;4.13;;
20988;SDS011;10653;47.052;15.410;2023-04-01T08:34:31;4.50;;;4.10;;
20988;SDS011;10653;47.052;15.410;2023-04-01T08:37:00;5.73;;;3.80;;
20988;SDS011;10653;47.052;15.410;2023-04-01T08:47:18;3.60;;;3.23;;
20988;SDS011;10653;47.052;15.410;2023-04-01T09:20:42;2.20;;;2.03;;
20988;SDS011;10653;47.052;15.410;2023-04-01T09:28:38;2.90;;;2.23;;
20988;SDS011;10653;47.052;15.410;2023-04-01T09:36:26;3.73;;;2.50;;
20988;SDS011;10653;47.052;15.410;2023-04-01T09:38:59;3.33;;;2.23;;
20988;SDS011;10653;47.052;15.410;2023-04-01T10:02:10;1.57;;;0.80;;
20988;SDS011;10653;47.052;15.410;2023-04-01T10:35:59;0.40;;;0.30;;
20988;SDS011;10653;47.052;15.410;2023-04-01T10:44:19;0.30;;;0.20;;
20988;SDS011;10653;47.052;15.410;2023-04-01T10:55:17;0.40;;;0.30;;
20988;SDS011;10653;47.052;15.410;2023-04-01T11:16:23;0.50;;;0.20;;
20988;SDS011;10653;47.052;15.410;2023-04-01T11:29:22;0.50;;;0.20;;
20988;SDS011;10653;47.052;15.410;2023-04-01T11:44:55;0.60;;;0.30;;
20988;SDS011;10653;47.052;15.410;2023-04-01T12:03:46;0.43;;;0.30;;
20988;SDS011;10653;47.052;15.410;2023-04-01T12:11:15;0.53;;;0.20;;
20988;SDS011;10653;47.052;15.410;2023-04-01T12:16:18;0.40;;;0.20;;
20988;SDS011;10653;47.052;15.410;2023-04-01T12:18:59;0.60;;;0.30;;
20988;SDS011;10653;47.052;15.410;2023-04-01T12:39:21;0.40;;;0.20;;
20988;SDS011;10653;47.052;15.410;2023-04-01T12:47:11;0.40;;;0.20;;
20988;SDS011;10653;47.052;15.410;2023-04-01T13:22:24;0.40;;;0.20;;
20988;SDS011;10653;47.052;15.410;2023-04-01T13:24:59;0.40;;;0.20;;
20988;SDS011;10653;47.052;15.410;2023-04-01T13:35:24;0.40;;;0.20;;
20988;SDS011;10653;47.052;15.410;2023-04-01T13:45:38;0.40;;;0.30;;
20988;SDS011;10653;47.052;15.410;2023-04-01T14:01:15;0.40;;;0.20;;
20988;SDS011;10653;47.052;15.410;2023-04-01T14:06:29;0.40;;;0.30;;
20988;SDS011;10653;47.052;15.410;2023-04-01T14:09:04;0.50;;;0.40;;
20988;SDS011;10653;47.052;15.410;2023-04-01T14:27:53;0.73;;;0.33;;
20988;SDS011;10653;47.052;15.410;2023-04-01T14:30:29;0.70;;;0.30;;
20988;SDS011;10653;47.052;15.410;2023-04-01T14:38:35;0.50;;;0.33;;
20988;SDS011;10653;47.052;15.410;2023-04-01T14:49:14;0.90;;;0.30;;
20988;SDS011;10653;47.052;15.410;2023-04-01T14:51:41;0.70;;;0.40;;
20988;SDS011;10653;47.052;15.410;2023-04-01T14:56:37;0.47;;;0.30;;
20988;SDS011;10653;47.052;15.410;2023-04-01T14:59:07;1.00;;;0.33;;
20988;SDS011;10653;47.052;15.410;2023-04-01T15:01:50;0.60;;;0.30;;
20988;SDS011;10653;47.052;15.410;2023-04-01T15:09:41;0.60;;;0.30;;
20988;SDS011;10653;47.052;15.410;2023-04-01T15:20:24;1.13;;;0.70;;
20988;SDS011;10653;47.052;15.410;2023-04-01T15:30:19;1.53;;;0.40;;
20988;SDS011;10653;47.052;15.410;2023-04-01T15:43:17;2.60;;;0.70;;
20988;SDS011;10653;47.052;15.410;2023-04-01T16:06:56;1.57;;;0.57;;
20988;SDS011;10653;47.052;15.410;2023-04-01T16:11:53;0.87;;;0.40;;
20988;SDS011;10653;47.052;15.410;2023-04-01T16:21:54;1.07;;;0.70;;
20988;SDS011;10653;47.052;15.410;2023-04-01T16:34:19;0.50;;;0.30;;
20988;SDS011;10653;47.052;15.410;2023-04-01T16:36:47;1.47;;;0.50;;
20988;SDS011;10653;47.052;15.410;2023-04-01T16:47:15;1.33;;;0.47;;
20988;SDS011;10653;47.052;15.410;2023-04-01T16:52:16;1.63;;;1.00;;
20988;SDS011;10653;47.052;15.410;2023-04-01T16:54:54;2.10;;;0.93;;
20988;SDS011;10653;47.052;15.410;2023-04-01T16:57:30;1.33;;;1.00;;
20988;SDS011;10653;47.052;15.410;2023-04-01T17:02:49;1.30;;;1.20;;
20988;SDS011;10653;47.052;15.410;2023-04-01T17:05:18;1.13;;;0.70;;
20988;SDS011;10653;47.052;15.410;2023-04-01T17:23:14;2.00;;;1.53;;
20988;SDS011;10653;47.052;15.410;2023-04-01T17:38:54;3.70;;;2.03;;
20988;SDS011;10653;47.052;15.410;2023-04-01T17:41:31;4.03;;;2.73;;
20988;SDS011;10653;47.052;15.410;2023-04-01T17:44:04;5.93;;;3.20;;
20988;SDS011;10653;47.052;15.410;2023-04-01T17:51:45;3.40;;;2.23;;
20988;SDS011;10653;47.052;15.410;2023-04-01T17:54:38;2.43;;;1.60;;
20988;SDS011;10653;47.052;15.410;2023-04-01T17:57:10;3.23;;;1.23;;
20988;SDS011;10653;47.052;15.410;2023-04-01T18:00:03;2.40;;;1.00;;
20988;SDS011;10653;47.052;15.410;2023-04-01T18:05:26;1.80;;;1.23;;
20988;SDS011;10653;47.052;15.410;2023-04-01T18:20:50;3.23;;;1.50;;
20988;SDS011;10653;47.052;15.410;2023-04-01T18:25:48;1.60;;;0.90;;
20988;SDS011;10653;47.052;15.410;2023-04-01T18:28:32;1.13;;;0.70;;
20988;SDS011;10653;47.052;15.410;2023-04-01T18:39:16;0.50;;;0.30;;
20988;SDS011;10653;47.052;15.410;2023-04-01T18:47:03;0.60;;;0.30;;
20988;SDS011;10653;47.052;15.410;2023-04-01T18:52:08;0.50;;;0.40;;
20988;SDS011;10653;47.052;15.410;2023-04-01T18:54:49;1.33;;;0.60;;
20988;SDS011;10653;47.052;15.410;2023-04-01T18:57:18;2.93;;;0.67;;
20988;SDS011;10653;47.052;15.410;2023-04-01T19:00:02;0.87;;;0.80;;
20988;SDS011;10653;47.052;15.410;2023-04-01T19:07:43;1.23;;;0.57;;
20988;SDS011;10653;47.052;15.410;2023-04-01T19:10:15;1.00;;;0.70;;
20988;SDS011;10653;47.052;15.410;2023-04-01T19:20:17;1.70;;;1.10;;
20988;SDS011;10653;47.052;15.410;2023-04-01T19:33:28;0.53;;;0.53;;
20988;SDS011;10653;47.052;15.410;2023-04-01T19:36:17;0.60;;;0.50;;
20988;SDS011;10653;47.052;15.410;2023-04-01T19:38:52;0.90;;;0.40;;
20988;SDS011;10653;47.052;15.410;2023-04-01T19:43:54;0.80;;;0.50;;
20988;SDS011;10653;47.052;15.410;2023-04-01T19:46:26;1.17;;;0.50;;
20988;SDS011;10653;47.052;15.410;2023-04-01T19:51:23;0.60;;;0.50;;
20988;SDS011;10653;47.052;15.410;2023-04-01T19:53:53;0.83;;;0.40;;
20988;SDS011;10653;47.052;15.410;2023-04-01T19:56:23;1.30;;;1.20;;
20988;SDS011;10653;47.052;15.410;2023-04-01T20:01:34;0.63;;;0.60;;
20988;SDS011;10653;47.052;15.410;2023-04-01T20:04:03;1.03;;;0.80;;
20988;SDS011;10653;47.052;15.410;2023-04-01T20:17:07;8.10;;;7.60;;
20988;SDS011;10653;47.052;15.410;2023-04-01T20:19:55;4.07;;;3.77;;
20988;SDS011;10653;47.052;15.410;2023-04-01T20:22:28;2.40;;;2.20;;
20988;SDS011;10653;47.052;15.410;2023-04-01T20:24:59;2.30;;;2.10;;
20988;SDS011;10653;47.052;15.410;2023-04-01T20:27:35;2.27;;;1.80;;
20988;SDS011;10653;47.052;15.410;2023-04-01T20:30:19;3.73;;;1.30;;
20988;SDS011;10653;47.052;15.410;2023-04-01T20:40:41;3.53;;;3.10;;
20988;SDS011;10653;47.052;15.410;2023-04-01T20:46:14;4.73;;;2.40;;
20988;SDS011;10653;47.052;15.410;2023-04-01T20:58:53;1.63;;;1.27;;
20988;SDS011;10653;47.052;15.410;2023-04-01T21:04:09;4.77;;;3.50;;
20988;SDS011;10653;47.052;15.410;2023-04-01T21:17:14;1.37;;;0.87;;
20988;SDS011;10653;47.052;15.410;2023-04-01T21:32:37;1.10;;;0.70;;
20988;SDS011;10653;47.052;15.410;2023-04-01T21:38:13;1.27;;;0.70;;
20988;SDS011;10653;47.052;15.410;2023-04-01T21:40:37;1.33;;;0.73;;
20988;SDS011;10653;47.052;15.410;2023-04-01T21:45:39;1.70;;;0.70;;
20988;SDS011;10653;47.052;15.410;2023-04-01T21:50:43;3.30;;;1.30;;
20988;SDS011;10653;47.052;15.410;2023-04-01T22:06:45;1.23;;;0.90;;
20988;SDS011;10653;47.052;15.410;2023-04-01T22:09:25;2.30;;;0.93;;
20988;SDS011;10653;47.052;15.410;2023-04-01T22:14:33;1.00;;;0.83;;
20988;SDS011;10653;47.052;15.410;2023-04-01T22:17:11;1.40;;;0.97;;
20988;SDS011;10653;47.052;15.410;2023-04-01T22:20:28;1.00;;;0.60;;
20988;SDS011;10653;47.052;15.410;2023-04-01T22:22:45;1.07;;;0.97;;
20988;SDS011;10653;47.052;15.410;2023-04-01T22:25:15;0.63;;;0.60;;
20988;SDS011;10653;47.052;15.410;2023-04-01T22:27:47;1.27;;;1.00;;
20988;SDS011;10653;47.052;15.410;2023-04-01T22:30:27;1.30;;;1.03;;
20988;SDS011;10653;47.052;15.410;2023-04-01T22:35:49;1.50;;;1.10;;
20988;SDS011;10653;47.052;15.410;2023-04-01T22:41:19;2.20;;;1.30;;
20988;SDS011;10653;47.052;15.410;2023-04-01T22:43:51;1.60;;;1.33;;
20988;SDS011;10653;47.052;15.410;2023-04-01T22:46:23;1.80;;;0.93;;
20988;SDS011;10653;47.052;15.410;2023-04-01T22:54:06;2.30;;;1.33;;
20988;SDS011;10653;47.052;15.410;2023-04-01T22:56:38;2.10;;;1.30;;
20988;SDS011;10653;47.052;15.410;2023-04-01T22:59:08;1.13;;;1.03;;
20988;SDS011;10653;47.052;15.410;2023-04-01T23:01:38;1.17;;;1.03;;
20988;SDS011;10653;47.052;15.410;2023-04-01T23:04:07;1.47;;;1.10;;
20988;SDS011;10653;47.052;15.410;2023-04-01T23:06:38;1.60;;;0.90;;
20988;SDS011;10653;47.052;15.410;2023-04-01T23:09:14;1.33;;;0.80;;
20988;SDS011;10653;47.052;15.410;2023-04-01T23:11:47;2.60;;;1.23;;
20988;SDS011;10653;47.052;15.410;2023-04-01T23:19:25;3.70;;;1.03;;
20988;SDS011;10653;47.052;15.410;2023-04-01T23:24:49;1.13;;;0.90;;
20988;SDS011;10653;47.052;15.410;2023-04-01T23:29:45;1.50;;;1.40;;
20988;SDS011;10653;47.052;15.410;2023-04-01T23:32:17;2.03;;;1.40;;
20988;SDS011;10653;47.052;15.410;2023-04-01T23:34:48;1.83;;;1.10;;
20988;SDS011;10653;47.052;15.410;2023-04-01T23:37:14;1.30;;;0.77;;
20988;SDS011;10653;47.052;15.410;2023-04-01T23:39:44;1.77;;;1.23;;
20988;SDS011;10653;47.052;15.410;2023-04-01T23:42:15;2.00;;;1.37;;
20988;SDS011;10653;47.052;15.410;2023-04-01T23:44:45;1.73;;;1.37;;
20988;SDS011;10653;47.052;15.410;2023-04-01T23:47:16;1.33;;;1.10;;
20988;SDS011;10653;47.052;15.410;2023-04-01T23:49:44;2.40;;;1.20;;
20988;SDS011;10653;47.052;15.410;2023-04-01T23:52:21;1.70;;;1.10;;
20988;SDS011;10653;47.052;15.410;2023-04-01T23:54:48;1.40;;;1.20;;
20988;SDS011;10653;47.052;15.410;2023-04-01T23:57:17;1.90;;;1.10;;
20988;SDS011;10653;47.052;15.410;2023-04-01T23:59:45;1.53;;;1.30;;
